Iraklion, Greece
Current Conditions -  °F | °C
As of 3:50 AM on Tuesday 23 Dec 2014 (Local Time) from LGIR Reporting Station
Few Clouds Few Clouds  
Wind Chill: 50°   Ceiling: Unl
Heat Index: 50°   Visibility: 6mi
Dew Point: 45°   Wind: 3mph
Humidity: 82%   Direction: NA
Pressure: 30.24"   Gusts: NA
Location:  35.32916°N, 25.13853°E
Report Text: LGIR 230050Z VRB03KT 9999 FEW020 10/07 Q1024 NOSIG
Loading
Personal Weather Stations






























Interactive Weather Map New forecast layout! Learn more

10-Day Weather Forecast

Advertisements
Track Severe Weather on mobile